Weather at Esperadinha Airport

Public forecast

Using degrees Celsius for public forecast. Weather courtesy of forecast.io.

Closest aviation weather report (METAR) to Esperadinha Airport

Report is more than 6 hours old.

Closest report is Praia International Airport, 72.8 nm (134.8 km) E.

2022/11/14 15:00 (retrieved 2 years ago)

GVNP 141500Z 03017KT 9999 FEW015 BKN200 28/19 Q1014 NOSIG

Closest aviation forecast (TAF) to Esperadinha Airport

Forecast is more than 12 hours old.

Closest forecast is Praia International Airport, 72.8 nm (134.8 km) E.

2023/02/22 18:00 (retrieved 1 year ago)

TAF GVNP 221700Z 2218/2324 03020KT 9999 FEW016